sensor_id;sensor_type;location;lat;lon;timestamp;P1;durP1;ratioP1;P2;durP2;ratioP2
24261;SDS011;12385;51.412;5.540;2023-10-08T00:00:51;13.63;;;4.97;;
24261;SDS011;12385;51.412;5.540;2023-10-08T00:03:21;11.32;;;4.20;;
24261;SDS011;12385;51.412;5.540;2023-10-08T00:05:47;7.85;;;4.30;;
24261;SDS011;12385;51.412;5.540;2023-10-08T00:08:14;10.95;;;5.07;;
24261;SDS011;12385;51.412;5.540;2023-10-08T00:10:41;9.50;;;4.55;;
24261;SDS011;12385;51.412;5.540;2023-10-08T00:13:09;12.63;;;4.72;;
24261;SDS011;12385;51.412;5.540;2023-10-08T00:15:37;14.50;;;4.80;;
24261;SDS011;12385;51.412;5.540;2023-10-08T00:18:07;14.82;;;5.10;;
24261;SDS011;12385;51.412;5.540;2023-10-08T00:20:36;10.20;;;4.70;;
24261;SDS011;12385;51.412;5.540;2023-10-08T00:23:15;11.25;;;4.78;;
24261;SDS011;12385;51.412;5.540;2023-10-08T00:25:42;11.40;;;5.05;;
24261;SDS011;12385;51.412;5.540;2023-10-08T00:28:12;10.65;;;5.00;;
24261;SDS011;12385;51.412;5.540;2023-10-08T00:30:41;12.07;;;4.75;;
24261;SDS011;12385;51.412;5.540;2023-10-08T00:33:10;11.80;;;4.57;;
24261;SDS011;12385;51.412;5.540;2023-10-08T00:35:39;11.02;;;4.75;;
24261;SDS011;12385;51.412;5.540;2023-10-08T00:38:06;11.63;;;4.68;;
24261;SDS011;12385;51.412;5.540;2023-10-08T00:40:42;10.07;;;4.78;;
24261;SDS011;12385;51.412;5.540;2023-10-08T00:43:29;11.23;;;4.57;;
24261;SDS011;12385;51.412;5.540;2023-10-08T00:46:00;12.48;;;4.55;;
24261;SDS011;12385;51.412;5.540;2023-10-08T00:48:26;10.90;;;4.82;;
24261;SDS011;12385;51.412;5.540;2023-10-08T00:50:55;11.05;;;4.60;;
24261;SDS011;12385;51.412;5.540;2023-10-08T00:53:33;12.50;;;4.90;;
24261;SDS011;12385;51.412;5.540;2023-10-08T00:56:05;13.98;;;4.80;;
24261;SDS011;12385;51.412;5.540;2023-10-08T00:58:41;12.65;;;4.30;;
24261;SDS011;12385;51.412;5.540;2023-10-08T01:01:06;12.48;;;4.93;;
24261;SDS011;12385;51.412;5.540;2023-10-08T01:03:35;10.02;;;5.00;;
24261;SDS011;12385;51.412;5.540;2023-10-08T01:06:10;8.90;;;4.57;;
24261;SDS011;12385;51.412;5.540;2023-10-08T01:08:36;13.68;;;4.65;;
24261;SDS011;12385;51.412;5.540;2023-10-08T01:11:18;11.30;;;4.57;;
24261;SDS011;12385;51.412;5.540;2023-10-08T01:14:07;14.43;;;4.75;;
24261;SDS011;12385;51.412;5.540;2023-10-08T01:16:33;9.35;;;4.57;;
24261;SDS011;12385;51.412;5.540;2023-10-08T01:18:59;11.45;;;4.70;;
24261;SDS011;12385;51.412;5.540;2023-10-08T01:21:29;11.25;;;4.82;;
24261;SDS011;12385;51.412;5.540;2023-10-08T01:23:59;9.82;;;4.60;;
24261;SDS011;12385;51.412;5.540;2023-10-08T01:26:32;12.50;;;4.70;;
24261;SDS011;12385;51.412;5.540;2023-10-08T01:29:04;12.20;;;4.50;;
24261;SDS011;12385;51.412;5.540;2023-10-08T01:31:34;9.18;;;4.60;;
24261;SDS011;12385;51.412;5.540;2023-10-08T01:34:01;15.32;;;4.60;;
24261;SDS011;12385;51.412;5.540;2023-10-08T01:36:29;11.27;;;4.53;;
24261;SDS011;12385;51.412;5.540;2023-10-08T01:38:56;12.40;;;4.30;;
24261;SDS011;12385;51.412;5.540;2023-10-08T01:41:22;11.93;;;4.45;;
24261;SDS011;12385;51.412;5.540;2023-10-08T01:43:57;11.43;;;4.60;;
24261;SDS011;12385;51.412;5.540;2023-10-08T01:46:24;12.57;;;4.80;;
24261;SDS011;12385;51.412;5.540;2023-10-08T01:48:53;12.70;;;4.43;;
24261;SDS011;12385;51.412;5.540;2023-10-08T01:51:25;8.35;;;4.40;;
24261;SDS011;12385;51.412;5.540;2023-10-08T01:54:01;9.93;;;4.53;;
24261;SDS011;12385;51.412;5.540;2023-10-08T01:56:28;12.80;;;4.70;;
24261;SDS011;12385;51.412;5.540;2023-10-08T01:58:54;10.18;;;4.43;;
24261;SDS011;12385;51.412;5.540;2023-10-08T02:01:20;10.25;;;4.50;;
24261;SDS011;12385;51.412;5.540;2023-10-08T02:03:46;10.48;;;5.28;;
24261;SDS011;12385;51.412;5.540;2023-10-08T02:06:14;11.20;;;4.50;;
24261;SDS011;12385;51.412;5.540;2023-10-08T02:08:39;12.27;;;4.70;;
24261;SDS011;12385;51.412;5.540;2023-10-08T02:11:05;12.00;;;4.25;;
24261;SDS011;12385;51.412;5.540;2023-10-08T02:13:31;13.52;;;4.15;;
24261;SDS011;12385;51.412;5.540;2023-10-08T02:15:56;12.77;;;4.55;;
24261;SDS011;12385;51.412;5.540;2023-10-08T02:18:23;13.55;;;4.43;;
24261;SDS011;12385;51.412;5.540;2023-10-08T02:20:50;11.98;;;4.30;;
24261;SDS011;12385;51.412;5.540;2023-10-08T02:23:15;11.90;;;4.68;;
24261;SDS011;12385;51.412;5.540;2023-10-08T02:25:43;11.18;;;4.80;;
24261;SDS011;12385;51.412;5.540;2023-10-08T02:28:10;12.80;;;5.10;;
24261;SDS011;12385;51.412;5.540;2023-10-08T02:30:40;9.35;;;4.55;;
24261;SDS011;12385;51.412;5.540;2023-10-08T02:33:06;9.38;;;4.95;;
24261;SDS011;12385;51.412;5.540;2023-10-08T02:35:39;9.65;;;4.60;;
24261;SDS011;12385;51.412;5.540;2023-10-08T02:38:12;12.35;;;5.00;;
24261;SDS011;12385;51.412;5.540;2023-10-08T02:40:38;12.23;;;4.78;;
24261;SDS011;12385;51.412;5.540;2023-10-08T02:43:10;9.75;;;4.22;;
24261;SDS011;12385;51.412;5.540;2023-10-08T02:45:36;7.95;;;4.40;;
24261;SDS011;12385;51.412;5.540;2023-10-08T02:48:06;8.85;;;3.92;;
24261;SDS011;12385;51.412;5.540;2023-10-08T02:50:40;14.63;;;4.53;;
24261;SDS011;12385;51.412;5.540;2023-10-08T02:53:07;9.65;;;4.38;;
24261;SDS011;12385;51.412;5.540;2023-10-08T02:55:38;9.20;;;4.37;;
24261;SDS011;12385;51.412;5.540;2023-10-08T02:58:13;13.07;;;4.45;;
24261;SDS011;12385;51.412;5.540;2023-10-08T03:00:43;11.93;;;4.22;;
24261;SDS011;12385;51.412;5.540;2023-10-08T03:03:12;15.45;;;4.40;;
24261;SDS011;12385;51.412;5.540;2023-10-08T03:05:51;9.30;;;4.60;;
24261;SDS011;12385;51.412;5.540;2023-10-08T03:08:17;9.50;;;4.55;;
24261;SDS011;12385;51.412;5.540;2023-10-08T03:10:46;13.15;;;4.75;;
24261;SDS011;12385;51.412;5.540;2023-10-08T03:13:15;14.43;;;4.47;;
24261;SDS011;12385;51.412;5.540;2023-10-08T03:15:42;8.57;;;4.28;;
24261;SDS011;12385;51.412;5.540;2023-10-08T03:18:26;10.52;;;4.57;;
24261;SDS011;12385;51.412;5.540;2023-10-08T03:21:01;10.00;;;4.72;;
24261;SDS011;12385;51.412;5.540;2023-10-08T03:23:45;8.90;;;4.50;;
24261;SDS011;12385;51.412;5.540;2023-10-08T03:26:16;9.27;;;4.53;;
24261;SDS011;12385;51.412;5.540;2023-10-08T03:28:57;9.25;;;4.30;;
24261;SDS011;12385;51.412;5.540;2023-10-08T03:31:31;13.40;;;4.45;;
24261;SDS011;12385;51.412;5.540;2023-10-08T03:34:11;11.80;;;4.90;;
24261;SDS011;12385;51.412;5.540;2023-10-08T03:36:43;12.20;;;4.38;;
24261;SDS011;12385;51.412;5.540;2023-10-08T03:39:10;10.20;;;4.45;;
24261;SDS011;12385;51.412;5.540;2023-10-08T03:41:38;9.27;;;4.47;;
24261;SDS011;12385;51.412;5.540;2023-10-08T03:44:05;12.35;;;4.45;;
24261;SDS011;12385;51.412;5.540;2023-10-08T03:46:37;10.13;;;4.13;;
24261;SDS011;12385;51.412;5.540;2023-10-08T03:49:11;8.57;;;4.43;;
24261;SDS011;12385;51.412;5.540;2023-10-08T03:51:57;10.50;;;4.75;;
24261;SDS011;12385;51.412;5.540;2023-10-08T03:54:23;9.55;;;4.38;;
24261;SDS011;12385;51.412;5.540;2023-10-08T03:56:55;14.63;;;4.78;;
24261;SDS011;12385;51.412;5.540;2023-10-08T03:59:21;10.88;;;4.38;;
24261;SDS011;12385;51.412;5.540;2023-10-08T04:02:02;10.68;;;4.25;;
24261;SDS011;12385;51.412;5.540;2023-10-08T04:04:49;12.70;;;4.75;;
24261;SDS011;12385;51.412;5.540;2023-10-08T04:07:22;9.38;;;4.72;;
24261;SDS011;12385;51.412;5.540;2023-10-08T04:09:58;12.80;;;4.88;;
24261;SDS011;12385;51.412;5.540;2023-10-08T04:12:34;12.75;;;4.88;;
24261;SDS011;12385;51.412;5.540;2023-10-08T04:15:02;10.73;;;4.68;;
24261;SDS011;12385;51.412;5.540;2023-10-08T04:17:33;8.23;;;4.35;;
24261;SDS011;12385;51.412;5.540;2023-10-08T04:20:08;13.23;;;4.70;;
24261;SDS011;12385;51.412;5.540;2023-10-08T04:22:53;12.77;;;4.82;;
24261;SDS011;12385;51.412;5.540;2023-10-08T04:25:19;8.70;;;4.25;;
24261;SDS011;12385;51.412;5.540;2023-10-08T04:27:45;11.48;;;4.70;;
24261;SDS011;12385;51.412;5.540;2023-10-08T04:30:14;14.43;;;5.00;;
24261;SDS011;12385;51.412;5.540;2023-10-08T04:32:41;11.38;;;4.45;;
24261;SDS011;12385;51.412;5.540;2023-10-08T04:35:07;12.88;;;4.70;;
24261;SDS011;12385;51.412;5.540;2023-10-08T04:37:39;10.50;;;4.70;;
24261;SDS011;12385;51.412;5.540;2023-10-08T04:40:06;11.98;;;4.40;;
24261;SDS011;12385;51.412;5.540;2023-10-08T04:42:41;10.55;;;4.68;;
24261;SDS011;12385;51.412;5.540;2023-10-08T04:45:10;12.35;;;4.82;;
24261;SDS011;12385;51.412;5.540;2023-10-08T04:47:39;11.48;;;4.68;;
24261;SDS011;12385;51.412;5.540;2023-10-08T04:50:07;12.02;;;4.60;;
24261;SDS011;12385;51.412;5.540;2023-10-08T04:52:43;11.75;;;4.47;;
24261;SDS011;12385;51.412;5.540;2023-10-08T04:55:21;10.65;;;4.75;;
24261;SDS011;12385;51.412;5.540;2023-10-08T04:57:53;11.80;;;4.97;;
24261;SDS011;12385;51.412;5.540;2023-10-08T05:00:20;12.80;;;5.40;;
24261;SDS011;12385;51.412;5.540;2023-10-08T05:03:06;10.10;;;4.68;;
24261;SDS011;12385;51.412;5.540;2023-10-08T05:05:41;12.77;;;4.95;;
24261;SDS011;12385;51.412;5.540;2023-10-08T05:08:42;12.32;;;5.05;;
24261;SDS011;12385;51.412;5.540;2023-10-08T05:11:23;12.20;;;5.57;;
24261;SDS011;12385;51.412;5.540;2023-10-08T05:14:16;13.68;;;5.50;;
24261;SDS011;12385;51.412;5.540;2023-10-08T05:17:07;15.80;;;5.43;;
24261;SDS011;12385;51.412;5.540;2023-10-08T05:19:47;13.60;;;5.27;;
24261;SDS011;12385;51.412;5.540;2023-10-08T05:22:26;11.18;;;5.43;;
24261;SDS011;12385;51.412;5.540;2023-10-08T05:24:52;11.73;;;5.15;;
24261;SDS011;12385;51.412;5.540;2023-10-08T05:27:39;12.15;;;5.75;;
24261;SDS011;12385;51.412;5.540;2023-10-08T05:30:12;13.70;;;5.40;;
24261;SDS011;12385;51.412;5.540;2023-10-08T05:32:42;12.55;;;5.30;;
24261;SDS011;12385;51.412;5.540;2023-10-08T05:35:27;13.90;;;5.43;;
24261;SDS011;12385;51.412;5.540;2023-10-08T05:38:17;11.45;;;4.78;;
24261;SDS011;12385;51.412;5.540;2023-10-08T05:40:59;14.65;;;4.78;;
24261;SDS011;12385;51.412;5.540;2023-10-08T05:43:26;9.75;;;5.25;;
24261;SDS011;12385;51.412;5.540;2023-10-08T05:46:05;12.10;;;4.78;;
24261;SDS011;12385;51.412;5.540;2023-10-08T05:48:47;14.52;;;5.50;;
24261;SDS011;12385;51.412;5.540;2023-10-08T05:51:41;17.45;;;5.47;;
24261;SDS011;12385;51.412;5.540;2023-10-08T05:57:08;14.05;;;5.47;;
24261;SDS011;12385;51.412;5.540;2023-10-08T05:59:37;14.27;;;5.40;;
24261;SDS011;12385;51.412;5.540;2023-10-08T06:02:25;14.80;;;5.22;;
24261;SDS011;12385;51.412;5.540;2023-10-08T06:05:03;12.18;;;4.95;;
24261;SDS011;12385;51.412;5.540;2023-10-08T06:10:20;12.73;;;5.10;;
24261;SDS011;12385;51.412;5.540;2023-10-08T06:12:55;13.00;;;5.55;;
24261;SDS011;12385;51.412;5.540;2023-10-08T06:15:27;11.60;;;5.13;;
24261;SDS011;12385;51.412;5.540;2023-10-08T06:18:12;10.60;;;5.38;;
24261;SDS011;12385;51.412;5.540;2023-10-08T06:20:39;14.52;;;5.68;;
24261;SDS011;12385;51.412;5.540;2023-10-08T06:23:15;18.52;;;5.55;;
24261;SDS011;12385;51.412;5.540;2023-10-08T06:25:45;14.70;;;5.82;;
24261;SDS011;12385;51.412;5.540;2023-10-08T06:28:33;12.40;;;5.93;;
24261;SDS011;12385;51.412;5.540;2023-10-08T06:31:02;12.83;;;5.23;;
24261;SDS011;12385;51.412;5.540;2023-10-08T06:33:31;11.23;;;5.45;;
24261;SDS011;12385;51.412;5.540;2023-10-08T06:36:02;13.15;;;5.35;;
24261;SDS011;12385;51.412;5.540;2023-10-08T06:41:08;15.07;;;5.35;;
24261;SDS011;12385;51.412;5.540;2023-10-08T06:43:38;11.50;;;5.65;;
24261;SDS011;12385;51.412;5.540;2023-10-08T06:46:04;13.18;;;6.32;;
24261;SDS011;12385;51.412;5.540;2023-10-08T06:48:37;15.73;;;5.70;;
24261;SDS011;12385;51.412;5.540;2023-10-08T06:53:37;14.52;;;5.70;;
24261;SDS011;12385;51.412;5.540;2023-10-08T06:56:16;19.02;;;5.60;;
24261;SDS011;12385;51.412;5.540;2023-10-08T06:58:44;18.00;;;5.85;;
24261;SDS011;12385;51.412;5.540;2023-10-08T07:01:14;16.60;;;6.30;;
24261;SDS011;12385;51.412;5.540;2023-10-08T07:03:46;12.23;;;5.88;;
24261;SDS011;12385;51.412;5.540;2023-10-08T07:06:14;12.98;;;5.50;;
24261;SDS011;12385;51.412;5.540;2023-10-08T07:08:50;15.35;;;5.63;;
24261;SDS011;12385;51.412;5.540;2023-10-08T07:13:46;12.57;;;5.53;;
24261;SDS011;12385;51.412;5.540;2023-10-08T07:16:12;16.20;;;5.90;;
24261;SDS011;12385;51.412;5.540;2023-10-08T07:18:42;16.17;;;5.65;;
24261;SDS011;12385;51.412;5.540;2023-10-08T07:21:16;12.45;;;5.53;;
24261;SDS011;12385;51.412;5.540;2023-10-08T07:23:41;11.63;;;6.07;;
24261;SDS011;12385;51.412;5.540;2023-10-08T07:26:27;18.40;;;6.88;;
24261;SDS011;12385;51.412;5.540;2023-10-08T07:29:05;15.13;;;6.35;;
24261;SDS011;12385;51.412;5.540;2023-10-08T07:31:35;19.02;;;6.28;;
24261;SDS011;12385;51.412;5.540;2023-10-08T07:34:03;15.30;;;6.22;;
24261;SDS011;12385;51.412;5.540;2023-10-08T07:36:47;14.23;;;6.72;;
24261;SDS011;12385;51.412;5.540;2023-10-08T07:39:17;14.75;;;6.18;;
24261;SDS011;12385;51.412;5.540;2023-10-08T07:41:50;17.05;;;6.70;;
24261;SDS011;12385;51.412;5.540;2023-10-08T07:44:16;21.42;;;7.40;;
24261;SDS011;12385;51.412;5.540;2023-10-08T07:46:46;19.30;;;7.65;;
24261;SDS011;12385;51.412;5.540;2023-10-08T07:49:13;17.55;;;7.45;;
24261;SDS011;12385;51.412;5.540;2023-10-08T07:51:39;15.40;;;7.78;;
24261;SDS011;12385;51.412;5.540;2023-10-08T07:54:05;15.70;;;6.93;;
24261;SDS011;12385;51.412;5.540;2023-10-08T07:56:34;23.13;;;7.60;;
24261;SDS011;12385;51.412;5.540;2023-10-08T07:59:02;14.38;;;7.50;;
24261;SDS011;12385;51.412;5.540;2023-10-08T08:01:34;18.38;;;7.75;;
24261;SDS011;12385;51.412;5.540;2023-10-08T08:04:00;24.48;;;7.50;;
24261;SDS011;12385;51.412;5.540;2023-10-08T08:06:25;17.83;;;7.75;;
24261;SDS011;12385;51.412;5.540;2023-10-08T08:08:52;18.40;;;7.43;;
24261;SDS011;12385;51.412;5.540;2023-10-08T08:11:17;18.92;;;7.93;;
24261;SDS011;12385;51.412;5.540;2023-10-08T08:13:44;23.17;;;8.20;;
24261;SDS011;12385;51.412;5.540;2023-10-08T08:16:11;17.23;;;8.07;;
24261;SDS011;12385;51.412;5.540;2023-10-08T08:18:47;23.33;;;8.77;;
24261;SDS011;12385;51.412;5.540;2023-10-08T08:21:14;22.70;;;8.50;;
24261;SDS011;12385;51.412;5.540;2023-10-08T08:23:49;18.10;;;8.40;;
24261;SDS011;12385;51.412;5.540;2023-10-08T08:26:15;19.90;;;8.88;;
24261;SDS011;12385;51.412;5.540;2023-10-08T08:31:26;24.75;;;9.23;;
24261;SDS011;12385;51.412;5.540;2023-10-08T08:36:28;23.67;;;9.00;;
24261;SDS011;12385;51.412;5.540;2023-10-08T08:38:57;20.13;;;8.43;;
24261;SDS011;12385;51.412;5.540;2023-10-08T08:41:23;21.75;;;8.90;;
24261;SDS011;12385;51.412;5.540;2023-10-08T08:43:55;24.40;;;9.18;;
24261;SDS011;12385;51.412;5.540;2023-10-08T08:46:37;23.70;;;8.90;;
24261;SDS011;12385;51.412;5.540;2023-10-08T08:49:06;25.42;;;9.55;;
24261;SDS011;12385;51.412;5.540;2023-10-08T08:51:33;25.23;;;10.25;;
24261;SDS011;12385;51.412;5.540;2023-10-08T08:54:01;26.63;;;12.60;;
24261;SDS011;12385;51.412;5.540;2023-10-08T08:56:32;43.63;;;21.80;;
24261;SDS011;12385;51.412;5.540;2023-10-08T08:58:59;37.53;;;15.93;;
24261;SDS011;12385;51.412;5.540;2023-10-08T09:01:25;37.53;;;12.15;;
24261;SDS011;12385;51.412;5.540;2023-10-08T09:03:58;32.70;;;11.95;;
24261;SDS011;12385;51.412;5.540;2023-10-08T09:06:26;32.53;;;11.48;;
24261;SDS011;12385;51.412;5.540;2023-10-08T09:08:52;29.77;;;11.48;;
24261;SDS011;12385;51.412;5.540;2023-10-08T09:11:22;33.17;;;11.93;;
24261;SDS011;12385;51.412;5.540;2023-10-08T09:13:51;31.85;;;11.27;;
24261;SDS011;12385;51.412;5.540;2023-10-08T09:16:18;30.23;;;11.73;;
24261;SDS011;12385;51.412;5.540;2023-10-08T09:18:44;33.00;;;11.63;;
24261;SDS011;12385;51.412;5.540;2023-10-08T09:21:16;37.83;;;12.13;;
24261;SDS011;12385;51.412;5.540;2023-10-08T09:23:50;38.60;;;13.43;;
24261;SDS011;12385;51.412;5.540;2023-10-08T09:26:17;33.35;;;12.70;;
24261;SDS011;12385;51.412;5.540;2023-10-08T09:28:45;38.42;;;13.35;;
24261;SDS011;12385;51.412;5.540;2023-10-08T09:31:12;40.10;;;13.23;;
24261;SDS011;12385;51.412;5.540;2023-10-08T09:33:38;36.50;;;13.60;;
24261;SDS011;12385;51.412;5.540;2023-10-08T09:36:05;37.75;;;13.40;;
24261;SDS011;12385;51.412;5.540;2023-10-08T09:38:35;43.22;;;14.02;;
24261;SDS011;12385;51.412;5.540;2023-10-08T09:41:02;41.80;;;16.63;;
24261;SDS011;12385;51.412;5.540;2023-10-08T09:43:28;37.53;;;17.85;;
24261;SDS011;12385;51.412;5.540;2023-10-08T09:45:59;41.45;;;14.05;;
24261;SDS011;12385;51.412;5.540;2023-10-08T09:48:35;47.92;;;13.27;;
24261;SDS011;12385;51.412;5.540;2023-10-08T09:51:03;39.72;;;13.50;;
24261;SDS011;12385;51.412;5.540;2023-10-08T09:53:43;41.92;;;13.95;;
24261;SDS011;12385;51.412;5.540;2023-10-08T09:56:26;41.85;;;14.18;;
24261;SDS011;12385;51.412;5.540;2023-10-08T09:58:54;47.55;;;19.23;;
24261;SDS011;12385;51.412;5.540;2023-10-08T10:01:21;37.03;;;14.85;;
24261;SDS011;12385;51.412;5.540;2023-10-08T10:03:47;43.75;;;14.05;;
24261;SDS011;12385;51.412;5.540;2023-10-08T10:06:14;31.80;;;13.52;;
24261;SDS011;12385;51.412;5.540;2023-10-08T10:08:42;38.17;;;13.63;;
24261;SDS011;12385;51.412;5.540;2023-10-08T10:11:09;37.17;;;14.20;;
24261;SDS011;12385;51.412;5.540;2023-10-08T10:13:39;36.45;;;13.25;;
24261;SDS011;12385;51.412;5.540;2023-10-08T10:16:06;39.88;;;14.02;;
24261;SDS011;12385;51.412;5.540;2023-10-08T10:18:33;38.33;;;13.43;;
24261;SDS011;12385;51.412;5.540;2023-10-08T10:23:41;32.05;;;13.18;;
24261;SDS011;12385;51.412;5.540;2023-10-08T10:26:23;39.00;;;14.27;;
24261;SDS011;12385;51.412;5.540;2023-10-08T10:31:43;36.13;;;14.35;;
24261;SDS011;12385;51.412;5.540;2023-10-08T10:34:16;38.70;;;14.48;;
24261;SDS011;12385;51.412;5.540;2023-10-08T10:36:43;38.67;;;14.63;;
24261;SDS011;12385;51.412;5.540;2023-10-08T10:39:15;35.08;;;15.93;;
24261;SDS011;12385;51.412;5.540;2023-10-08T10:44:14;35.92;;;16.15;;
24261;SDS011;12385;51.412;5.540;2023-10-08T10:46:41;39.95;;;15.57;;
24261;SDS011;12385;51.412;5.540;2023-10-08T10:49:08;37.90;;;15.52;;
24261;SDS011;12385;51.412;5.540;2023-10-08T10:51:50;35.33;;;15.13;;
24261;SDS011;12385;51.412;5.540;2023-10-08T10:54:22;33.38;;;14.50;;
24261;SDS011;12385;51.412;5.540;2023-10-08T10:56:52;38.15;;;14.38;;
24261;SDS011;12385;51.412;5.540;2023-10-08T10:59:31;38.35;;;15.00;;
24261;SDS011;12385;51.412;5.540;2023-10-08T11:02:03;31.63;;;13.93;;
24261;SDS011;12385;51.412;5.540;2023-10-08T11:04:55;35.53;;;14.60;;
24261;SDS011;12385;51.412;5.540;2023-10-08T11:07:32;32.10;;;15.18;;
24261;SDS011;12385;51.412;5.540;2023-10-08T11:09:59;37.17;;;15.63;;
24261;SDS011;12385;51.412;5.540;2023-10-08T11:12:26;36.30;;;15.40;;
24261;SDS011;12385;51.412;5.540;2023-10-08T11:15:08;41.10;;;16.25;;
24261;SDS011;12385;51.412;5.540;2023-10-08T11:17:40;38.08;;;16.83;;
24261;SDS011;12385;51.412;5.540;2023-10-08T11:20:23;39.53;;;17.13;;
24261;SDS011;12385;51.412;5.540;2023-10-08T11:22:49;33.17;;;16.85;;
24261;SDS011;12385;51.412;5.540;2023-10-08T11:25:20;43.10;;;17.38;;
24261;SDS011;12385;51.412;5.540;2023-10-08T11:27:53;39.22;;;17.33;;
24261;SDS011;12385;51.412;5.540;2023-10-08T11:30:27;37.47;;;17.02;;
24261;SDS011;12385;51.412;5.540;2023-10-08T11:32:59;37.95;;;16.98;;
24261;SDS011;12385;51.412;5.540;2023-10-08T11:35:25;45.58;;;17.92;;
24261;SDS011;12385;51.412;5.540;2023-10-08T11:37:57;36.67;;;17.60;;
24261;SDS011;12385;51.412;5.540;2023-10-08T11:40:26;37.75;;;17.33;;
24261;SDS011;12385;51.412;5.540;2023-10-08T11:43:13;35.20;;;16.27;;
24261;SDS011;12385;51.412;5.540;2023-10-08T11:45:41;35.83;;;16.00;;
24261;SDS011;12385;51.412;5.540;2023-10-08T11:48:18;39.85;;;16.25;;
24261;SDS011;12385;51.412;5.540;2023-10-08T11:50:53;35.78;;;17.27;;
24261;SDS011;12385;51.412;5.540;2023-10-08T11:53:22;34.90;;;16.58;;
24261;SDS011;12385;51.412;5.540;2023-10-08T11:55:49;39.58;;;17.10;;
24261;SDS011;12385;51.412;5.540;2023-10-08T11:58:19;36.38;;;17.23;;
24261;SDS011;12385;51.412;5.540;2023-10-08T12:00:45;39.00;;;18.13;;
24261;SDS011;12385;51.412;5.540;2023-10-08T12:03:11;42.00;;;17.13;;
24261;SDS011;12385;51.412;5.540;2023-10-08T12:05:38;35.65;;;17.17;;
24261;SDS011;12385;51.412;5.540;2023-10-08T12:08:17;41.90;;;19.40;;
24261;SDS011;12385;51.412;5.540;2023-10-08T12:10:45;42.05;;;18.60;;
24261;SDS011;12385;51.412;5.540;2023-10-08T12:13:13;40.63;;;18.33;;
24261;SDS011;12385;51.412;5.540;2023-10-08T12:15:41;43.15;;;18.52;;
24261;SDS011;12385;51.412;5.540;2023-10-08T12:18:09;44.65;;;19.13;;
24261;SDS011;12385;51.412;5.540;2023-10-08T12:21:01;37.30;;;18.48;;
24261;SDS011;12385;51.412;5.540;2023-10-08T12:23:27;43.28;;;18.88;;
24261;SDS011;12385;51.412;5.540;2023-10-08T12:25:56;40.90;;;17.97;;
24261;SDS011;12385;51.412;5.540;2023-10-08T12:28:22;37.40;;;18.67;;
24261;SDS011;12385;51.412;5.540;2023-10-08T12:30:52;36.45;;;17.85;;
24261;SDS011;12385;51.412;5.540;2023-10-08T12:33:21;42.85;;;17.40;;
24261;SDS011;12385;51.412;5.540;2023-10-08T12:35:49;37.15;;;18.05;;
24261;SDS011;12385;51.412;5.540;2023-10-08T12:38:18;41.53;;;17.05;;
24261;SDS011;12385;51.412;5.540;2023-10-08T12:40:47;34.55;;;18.55;;
24261;SDS011;12385;51.412;5.540;2023-10-08T12:43:17;37.08;;;16.80;;
24261;SDS011;12385;51.412;5.540;2023-10-08T12:45:48;32.80;;;16.60;;
24261;SDS011;12385;51.412;5.540;2023-10-08T12:50:46;37.30;;;16.40;;
24261;SDS011;12385;51.412;5.540;2023-10-08T12:53:19;43.72;;;16.90;;
24261;SDS011;12385;51.412;5.540;2023-10-08T12:56:05;33.15;;;15.68;;
24261;SDS011;12385;51.412;5.540;2023-10-08T12:58:33;32.25;;;16.60;;
24261;SDS011;12385;51.412;5.540;2023-10-08T13:01:06;35.50;;;15.25;;
24261;SDS011;12385;51.412;5.540;2023-10-08T13:03:34;34.80;;;14.93;;
24261;SDS011;12385;51.412;5.540;2023-10-08T13:06:06;35.42;;;14.70;;
24261;SDS011;12385;51.412;5.540;2023-10-08T13:08:36;40.72;;;15.82;;
24261;SDS011;12385;51.412;5.540;2023-10-08T13:11:02;35.60;;;15.48;;
24261;SDS011;12385;51.412;5.540;2023-10-08T13:13:29;34.13;;;15.35;;
24261;SDS011;12385;51.412;5.540;2023-10-08T13:15:59;34.47;;;14.98;;
24261;SDS011;12385;51.412;5.540;2023-10-08T13:18:28;30.52;;;14.60;;
24261;SDS011;12385;51.412;5.540;2023-10-08T13:20:55;33.45;;;15.25;;
24261;SDS011;12385;51.412;5.540;2023-10-08T13:23:22;26.25;;;14.30;;
24261;SDS011;12385;51.412;5.540;2023-10-08T13:25:52;30.38;;;13.95;;
24261;SDS011;12385;51.412;5.540;2023-10-08T13:28:23;33.30;;;14.57;;
24261;SDS011;12385;51.412;5.540;2023-10-08T13:30:52;35.63;;;15.13;;
24261;SDS011;12385;51.412;5.540;2023-10-08T13:33:19;29.95;;;14.63;;
24261;SDS011;12385;51.412;5.540;2023-10-08T13:35:47;37.70;;;15.52;;
24261;SDS011;12385;51.412;5.540;2023-10-08T13:38:15;38.45;;;14.90;;
24261;SDS011;12385;51.412;5.540;2023-10-08T13:40:45;34.85;;;15.00;;
24261;SDS011;12385;51.412;5.540;2023-10-08T13:43:27;34.35;;;14.68;;
24261;SDS011;12385;51.412;5.540;2023-10-08T13:46:07;36.55;;;15.65;;
24261;SDS011;12385;51.412;5.540;2023-10-08T13:51:05;36.53;;;16.08;;
24261;SDS011;12385;51.412;5.540;2023-10-08T13:53:36;33.47;;;16.13;;
24261;SDS011;12385;51.412;5.540;2023-10-08T13:56:04;35.47;;;16.42;;
24261;SDS011;12385;51.412;5.540;2023-10-08T13:58:33;35.15;;;16.67;;
24261;SDS011;12385;51.412;5.540;2023-10-08T14:01:00;30.90;;;16.23;;
24261;SDS011;12385;51.412;5.540;2023-10-08T14:03:27;37.08;;;17.33;;
24261;SDS011;12385;51.412;5.540;2023-10-08T14:05:55;35.10;;;17.58;;
24261;SDS011;12385;51.412;5.540;2023-10-08T14:08:26;38.80;;;17.77;;
24261;SDS011;12385;51.412;5.540;2023-10-08T14:10:54;46.90;;;19.00;;
24261;SDS011;12385;51.412;5.540;2023-10-08T14:13:25;37.63;;;18.10;;
24261;SDS011;12385;51.412;5.540;2023-10-08T14:15:52;40.15;;;19.10;;
24261;SDS011;12385;51.412;5.540;2023-10-08T14:18:21;36.22;;;18.17;;
24261;SDS011;12385;51.412;5.540;2023-10-08T14:20:52;37.20;;;18.65;;
24261;SDS011;12385;51.412;5.540;2023-10-08T14:23:19;40.97;;;19.17;;
24261;SDS011;12385;51.412;5.540;2023-10-08T14:25:50;37.75;;;19.23;;
24261;SDS011;12385;51.412;5.540;2023-10-08T14:28:20;41.85;;;20.15;;
24261;SDS011;12385;51.412;5.540;2023-10-08T14:31:05;37.97;;;19.40;;
24261;SDS011;12385;51.412;5.540;2023-10-08T14:33:31;40.13;;;20.73;;
24261;SDS011;12385;51.412;5.540;2023-10-08T14:36:06;40.55;;;19.50;;
24261;SDS011;12385;51.412;5.540;2023-10-08T14:38:51;43.10;;;19.83;;
24261;SDS011;12385;51.412;5.540;2023-10-08T14:41:35;44.35;;;20.75;;
24261;SDS011;12385;51.412;5.540;2023-10-08T14:44:20;40.55;;;18.55;;
24261;SDS011;12385;51.412;5.540;2023-10-08T14:46:45;43.20;;;19.85;;
24261;SDS011;12385;51.412;5.540;2023-10-08T14:49:11;42.10;;;20.02;;
24261;SDS011;12385;51.412;5.540;2023-10-08T14:51:37;42.35;;;19.67;;
24261;SDS011;12385;51.412;5.540;2023-10-08T14:54:05;42.75;;;18.95;;
24261;SDS011;12385;51.412;5.540;2023-10-08T14:56:32;32.92;;;19.02;;
24261;SDS011;12385;51.412;5.540;2023-10-08T14:59:01;38.53;;;18.33;;
24261;SDS011;12385;51.412;5.540;2023-10-08T15:01:28;35.90;;;18.85;;
24261;SDS011;12385;51.412;5.540;2023-10-08T15:03:54;37.90;;;18.60;;
24261;SDS011;12385;51.412;5.540;2023-10-08T15:06:19;46.95;;;18.33;;
24261;SDS011;12385;51.412;5.540;2023-10-08T15:08:46;37.88;;;18.42;;
24261;SDS011;12385;51.412;5.540;2023-10-08T15:11:11;41.72;;;18.92;;
24261;SDS011;12385;51.412;5.540;2023-10-08T15:13:37;35.03;;;18.88;;
24261;SDS011;12385;51.412;5.540;2023-10-08T15:16:10;38.67;;;18.10;;
24261;SDS011;12385;51.412;5.540;2023-10-08T15:18:37;38.08;;;17.63;;
24261;SDS011;12385;51.412;5.540;2023-10-08T15:23:36;33.45;;;17.95;;
24261;SDS011;12385;51.412;5.540;2023-10-08T15:26:02;36.83;;;17.42;;
24261;SDS011;12385;51.412;5.540;2023-10-08T15:28:28;37.70;;;17.65;;